Archival Weather

Tokyo Intl

Tokyo, Japan (RJTT)

Report from: Tuesday, November 21, 2023 11:30 AM JST
Current time: Sunday, February 25, 2024 1:44 AM JST

Current weather – Weather history – Daily summaries
Weather forecast

Temperature13.0°C (55.4°F)
Dew point4.0°C (39.2°F)
Winds 3 kts (1.5 m/s, 3.5 mph) Vrb
Winds variableWinds variable from North (359.999999°) to East-Northeast (70°)
Visibility6.2 mi. (10 km)
Clouds Few clouds 3,000 ft. (914 m)
Altimeter30.21 in.Hg (1023 mB)
Relative humidity54 %
Density altitude-446 ft. (-136 m)
Flight conditions Visual Meteorological Conditions
Raw dataRJTT 210230Z 05003KT 360V070 9999 FEW030 13/04 Q1023 BECMG 10005KT RMK 1CU030 A3021
An error has occurred. This application may no longer respond until reloaded. Reload 🗙